createdAt,value
2016-12-14T00:00:30.551Z,408
2016-12-14T00:01:30.655Z,425
2016-12-14T00:02:30.728Z,400
2016-12-14T00:03:30.836Z,446
2016-12-14T00:04:30.919Z,436
2016-12-14T00:05:31.013Z,438
2016-12-14T00:06:31.094Z,426
2016-12-14T00:07:31.214Z,423
2016-12-14T00:08:31.282Z,415
2016-12-14T00:09:31.387Z,424
2016-12-14T00:10:31.482Z,424
2016-12-14T00:11:31.596Z,409
2016-12-14T00:12:31.683Z,425
2016-12-14T00:13:31.769Z,415
2016-12-14T00:14:31.888Z,400
2016-12-14T00:15:32.131Z,396
2016-12-14T00:16:32.223Z,418
2016-12-14T00:17:32.336Z,407
2016-12-14T00:18:32.415Z,429
2016-12-14T00:19:32.557Z,444
2016-12-14T00:20:32.704Z,440
2016-12-14T00:21:32.808Z,443
2016-12-14T00:22:32.893Z,439
2016-12-14T00:23:32.966Z,444
2016-12-14T00:24:33.070Z,435
2016-12-14T00:25:33.193Z,426
2016-12-14T00:26:33.282Z,409
2016-12-14T00:27:33.375Z,408
2016-12-14T00:28:33.475Z,410
2016-12-14T00:29:33.586Z,413
2016-12-14T00:30:33.659Z,404
2016-12-14T00:31:33.784Z,401
2016-12-14T00:32:33.880Z,384
2016-12-14T00:33:33.976Z,419
2016-12-14T00:34:34.097Z,404
2016-12-14T00:35:34.219Z,438
2016-12-14T00:36:34.303Z,445
2016-12-14T00:37:34.453Z,428
2016-12-14T00:38:34.612Z,422
2016-12-14T00:39:34.708Z,416
2016-12-14T00:40:34.837Z,416
2016-12-14T00:41:34.940Z,409
2016-12-14T00:42:35.066Z,414
2016-12-14T00:43:35.185Z,424
2016-12-14T00:44:35.274Z,413
2016-12-14T00:45:35.387Z,411
2016-12-14T00:46:35.485Z,404
2016-12-14T00:47:35.599Z,420
2016-12-14T00:48:35.685Z,414
2016-12-14T00:49:35.796Z,433
2016-12-14T00:50:35.975Z,426
2016-12-14T00:51:36.040Z,418
2016-12-14T00:52:36.215Z,399
2016-12-14T00:53:36.301Z,405
2016-12-14T00:54:36.548Z,417
2016-12-14T00:55:36.640Z,400
2016-12-14T00:56:36.754Z,403
2016-12-14T00:57:36.880Z,394
2016-12-14T00:58:36.948Z,380
2016-12-14T00:59:37.104Z,384
2016-12-14T01:00:37.193Z,376
2016-12-14T01:01:37.266Z,399
2016-12-14T01:02:37.390Z,375
2016-12-14T01:03:37.495Z,384
2016-12-14T01:04:37.577Z,379
2016-12-14T01:05:37.691Z,380
2016-12-14T01:06:37.784Z,380
2016-12-14T01:07:37.915Z,385
2016-12-14T01:08:37.982Z,388
2016-12-14T01:09:38.094Z,381
2016-12-14T01:10:38.206Z,386
2016-12-14T01:11:38.294Z,393
2016-12-14T01:12:38.416Z,393
2016-12-14T01:13:38.547Z,393
2016-12-14T01:14:38.632Z,396
2016-12-14T01:15:38.749Z,400
2016-12-14T01:16:38.836Z,396
2016-12-14T01:17:38.948Z,392
2016-12-14T01:18:39.043Z,387
2016-12-14T01:19:39.128Z,382
2016-12-14T01:20:39.237Z,396
2016-12-14T01:21:39.328Z,400
2016-12-14T01:22:39.418Z,400
2016-12-14T01:23:39.503Z,397
2016-12-14T01:24:39.603Z,398
2016-12-14T01:25:39.726Z,400
2016-12-14T01:26:39.837Z,395
2016-12-14T01:27:39.969Z,392
2016-12-14T01:28:40.067Z,390
2016-12-14T01:29:40.157Z,391
2016-12-14T01:30:40.319Z,391
2016-12-14T01:31:40.441Z,391
2016-12-14T01:32:40.554Z,397
2016-12-14T01:33:40.696Z,389
2016-12-14T01:34:40.787Z,387
2016-12-14T01:35:40.900Z,384
2016-12-14T01:36:41.010Z,389
2016-12-14T01:37:41.100Z,388
2016-12-14T01:38:41.246Z,386
2016-12-14T01:39:41.355Z,384
2016-12-14T01:40:41.459Z,382
2016-12-14T01:41:41.542Z,377
2016-12-14T01:42:41.667Z,386
2016-12-14T01:43:41.783Z,384
2016-12-14T01:44:41.875Z,384
2016-12-14T01:45:42.006Z,384
2016-12-14T01:46:42.096Z,378
2016-12-14T01:47:42.210Z,380
2016-12-14T01:48:42.362Z,378
2016-12-14T01:49:42.476Z,378
2016-12-14T01:50:42.611Z,380
2016-12-14T01:51:42.698Z,377
2016-12-14T01:52:42.819Z,381
2016-12-14T01:53:42.915Z,371
2016-12-14T01:54:42.994Z,367
2016-12-14T01:55:43.124Z,375
2016-12-14T01:56:43.206Z,378
2016-12-14T01:57:43.303Z,372
2016-12-14T01:58:43.384Z,375
2016-12-14T01:59:43.532Z,373
2016-12-14T02:00:43.641Z,376
2016-12-14T02:01:43.745Z,373
2016-12-14T02:02:43.831Z,370
2016-12-14T02:03:43.926Z,371
2016-12-14T02:04:44.888Z,363
2016-12-14T02:05:44.116Z,367
2016-12-14T02:06:44.375Z,361
2016-12-14T02:07:44.538Z,368
2016-12-14T02:08:44.627Z,351
2016-12-14T02:09:44.730Z,356
2016-12-14T02:10:44.853Z,354
2016-12-14T02:11:44.966Z,356
2016-12-14T02:12:45.052Z,356
2016-12-14T02:13:45.159Z,354
2016-12-14T02:14:45.266Z,353
2016-12-14T02:15:45.335Z,349
2016-12-14T02:16:45.437Z,342
2016-12-14T02:17:45.534Z,341
2016-12-14T02:18:45.647Z,341
2016-12-14T02:19:45.844Z,340
2016-12-14T02:20:45.966Z,339
2016-12-14T02:21:46.075Z,338
2016-12-14T02:22:46.277Z,341
2016-12-14T02:23:46.343Z,339
2016-12-14T02:24:46.409Z,342
2016-12-14T02:25:46.540Z,341
2016-12-14T02:26:46.647Z,341
2016-12-14T02:27:46.770Z,340
2016-12-14T02:28:46.875Z,341
2016-12-14T02:29:46.986Z,346
2016-12-14T02:30:47.100Z,355
2016-12-14T02:31:47.239Z,373
2016-12-14T02:32:47.349Z,370
2016-12-14T02:33:47.441Z,368
2016-12-14T02:34:48.405Z,362
2016-12-14T02:35:47.654Z,359
2016-12-14T02:36:47.803Z,357
2016-12-14T02:37:47.902Z,354
2016-12-14T02:38:47.973Z,352
2016-12-14T02:39:48.041Z,351
2016-12-14T02:40:48.172Z,355
2016-12-14T02:41:48.246Z,354
2016-12-14T02:42:48.403Z,346
2016-12-14T02:43:48.594Z,344
2016-12-14T02:44:48.687Z,343
2016-12-14T02:45:48.796Z,342
2016-12-14T02:46:48.904Z,342
2016-12-14T02:47:49.053Z,340
2016-12-14T02:48:49.166Z,340
2016-12-14T02:49:49.279Z,339
2016-12-14T02:50:49.388Z,337
2016-12-14T02:51:49.456Z,336
2016-12-14T02:52:49.535Z,336
2016-12-14T02:53:49.629Z,336
2016-12-14T02:54:49.727Z,336
2016-12-14T02:55:49.802Z,335
2016-12-14T02:56:49.890Z,335
2016-12-14T02:57:50.047Z,335
2016-12-14T02:58:50.251Z,336
2016-12-14T02:59:50.380Z,332
2016-12-14T03:00:50.475Z,331
2016-12-14T03:01:50.604Z,331
2016-12-14T03:02:50.676Z,330
2016-12-14T03:03:50.786Z,332
2016-12-14T03:04:50.904Z,332
2016-12-14T03:05:50.995Z,332
2016-12-14T03:06:51.110Z,331
2016-12-14T03:07:51.225Z,331
2016-12-14T03:08:51.354Z,331
2016-12-14T03:09:51.423Z,331
2016-12-14T03:10:51.553Z,331
2016-12-14T03:11:51.640Z,330
2016-12-14T03:12:51.725Z,330
2016-12-14T03:13:51.853Z,329
2016-12-14T03:14:51.962Z,329
2016-12-14T03:15:52.075Z,329
2016-12-14T03:16:52.223Z,328
2016-12-14T03:17:52.304Z,328
2016-12-14T03:18:52.365Z,327
2016-12-14T03:19:52.468Z,327
2016-12-14T03:20:52.579Z,327
2016-12-14T03:21:52.703Z,327
2016-12-14T03:22:52.789Z,326
2016-12-14T03:23:52.879Z,326
2016-12-14T03:24:53.018Z,326
2016-12-14T03:25:53.100Z,326
2016-12-14T03:26:53.190Z,326
2016-12-14T03:27:53.276Z,325
2016-12-14T03:28:53.407Z,325
2016-12-14T03:29:53.495Z,325
2016-12-14T03:30:53.605Z,325
2016-12-14T03:31:53.701Z,325
2016-12-14T03:32:53.770Z,325
2016-12-14T03:33:53.888Z,325
2016-12-14T03:34:54.036Z,325
2016-12-14T03:35:54.146Z,325
2016-12-14T03:36:54.225Z,325
2016-12-14T03:37:54.315Z,325
2016-12-14T03:38:54.436Z,325
2016-12-14T03:39:54.673Z,324
2016-12-14T03:40:54.794Z,324
2016-12-14T03:41:54.931Z,324
2016-12-14T03:42:55.014Z,324
2016-12-14T03:43:55.094Z,324
2016-12-14T03:44:55.177Z,323
2016-12-14T03:45:55.302Z,323
2016-12-14T03:46:55.423Z,322
2016-12-14T03:47:55.513Z,323
2016-12-14T03:48:55.631Z,323
2016-12-14T03:49:55.758Z,322
2016-12-14T03:50:55.848Z,322
2016-12-14T03:51:55.928Z,322
2016-12-14T03:52:56.153Z,322
2016-12-14T03:53:56.244Z,323
2016-12-14T03:54:56.329Z,322
2016-12-14T03:55:56.438Z,322
2016-12-14T03:56:56.634Z,321
2016-12-14T03:57:56.739Z,322
2016-12-14T03:58:56.848Z,323
2016-12-14T03:59:57.003Z,325
2016-12-14T04:00:57.108Z,326
2016-12-14T04:01:57.217Z,324
2016-12-14T04:02:57.319Z,321
2016-12-14T04:03:57.921Z,321
2016-12-14T04:04:57.488Z,320
2016-12-14T04:05:57.558Z,320
2016-12-14T04:06:57.693Z,320
2016-12-14T04:07:57.789Z,321
2016-12-14T04:08:57.884Z,321
2016-12-14T04:09:58.017Z,319
2016-12-14T04:10:58.093Z,319
2016-12-14T04:11:58.187Z,319
2016-12-14T04:12:58.263Z,317
2016-12-14T04:13:58.377Z,318
2016-12-14T04:14:58.469Z,318
2016-12-14T04:15:58.560Z,318
2016-12-14T04:16:58.693Z,318
2016-12-14T04:17:58.799Z,317
2016-12-14T04:18:58.868Z,317
2016-12-14T04:19:58.999Z,316
2016-12-14T04:20:59.096Z,316
2016-12-14T04:21:59.212Z,316
2016-12-14T04:22:59.309Z,316
2016-12-14T04:23:59.408Z,315
2016-12-14T04:24:59.527Z,315
2016-12-14T04:25:59.610Z,315
2016-12-14T04:26:59.703Z,314
2016-12-14T04:27:59.827Z,314
2016-12-14T04:28:59.948Z,314
2016-12-14T04:30:00.073Z,314
2016-12-14T04:31:00.196Z,314
2016-12-14T04:32:00.325Z,314
2016-12-14T04:33:00.468Z,315
2016-12-14T04:34:00.580Z,314
2016-12-14T04:35:00.665Z,314
2016-12-14T04:36:00.782Z,314
2016-12-14T04:37:00.892Z,314
2016-12-14T04:38:01.003Z,313
2016-12-14T04:39:01.127Z,312
2016-12-14T04:40:01.259Z,312
2016-12-14T04:41:01.360Z,312
2016-12-14T04:42:01.446Z,312
2016-12-14T04:43:01.546Z,312
2016-12-14T04:44:01.628Z,312
2016-12-14T04:45:01.715Z,314
2016-12-14T04:46:01.832Z,310
2016-12-14T04:47:01.979Z,310
2016-12-14T04:48:02.107Z,310
2016-12-14T04:49:02.196Z,311
2016-12-14T04:50:02.311Z,311
2016-12-14T04:51:02.446Z,312
2016-12-14T04:52:02.566Z,311
2016-12-14T04:53:02.659Z,310
2016-12-14T04:54:02.736Z,310
2016-12-14T04:55:02.831Z,311
2016-12-14T04:56:02.930Z,311
2016-12-14T04:57:03.019Z,310
2016-12-14T04:58:03.139Z,310
2016-12-14T04:59:03.230Z,310
2016-12-14T05:00:03.341Z,310
2016-12-14T05:01:03.424Z,310
2016-12-14T05:02:03.523Z,310
2016-12-14T05:03:03.644Z,310
2016-12-14T05:04:03.706Z,309
2016-12-14T05:05:03.864Z,310
2016-12-14T05:06:03.982Z,310
2016-12-14T05:07:04.101Z,314
2016-12-14T05:08:04.191Z,316
2016-12-14T05:09:04.282Z,316
2016-12-14T05:10:04.363Z,316
2016-12-14T05:11:04.446Z,317
2016-12-14T05:12:04.579Z,314
2016-12-14T05:13:04.661Z,314
2016-12-14T05:14:04.732Z,316
2016-12-14T05:15:04.841Z,316
2016-12-14T05:16:04.972Z,315
2016-12-14T05:17:05.093Z,312
2016-12-14T05:18:05.184Z,312
2016-12-14T05:19:05.318Z,311
2016-12-14T05:20:05.415Z,312
2016-12-14T05:21:06.434Z,374
2016-12-14T05:22:05.637Z,370
2016-12-14T05:23:06.462Z,383
2016-12-14T05:24:05.803Z,382
2016-12-14T05:25:06.937Z,391
2016-12-14T05:26:06.941Z,384
2016-12-14T05:27:06.233Z,390
2016-12-14T05:28:06.964Z,419
2016-12-14T05:29:07.939Z,425
2016-12-14T05:30:07.118Z,429
2016-12-14T05:31:07.203Z,421
2016-12-14T05:32:07.327Z,421
2016-12-14T05:33:07.420Z,421
2016-12-14T05:34:07.497Z,390
2016-12-14T05:35:07.633Z,388
2016-12-14T05:36:07.739Z,388
2016-12-14T05:37:07.829Z,398
2016-12-14T05:38:07.942Z,392
2016-12-14T05:39:08.015Z,395
2016-12-14T05:40:08.130Z,396
2016-12-14T05:41:08.232Z,396
2016-12-14T05:42:08.367Z,393
2016-12-14T05:43:08.456Z,390
2016-12-14T05:44:08.560Z,383
2016-12-14T05:45:08.653Z,365
2016-12-14T05:46:08.762Z,348
2016-12-14T05:47:08.904Z,353
2016-12-14T05:48:09.012Z,354
2016-12-14T05:49:09.089Z,349
2016-12-14T05:50:09.945Z,351
2016-12-14T05:51:09.310Z,349
2016-12-14T05:52:10.039Z,348
2016-12-14T05:53:10.150Z,346
2016-12-14T05:54:10.353Z,341
2016-12-14T05:55:10.453Z,337
2016-12-14T05:56:11.453Z,333
2016-12-14T05:57:10.649Z,329
2016-12-14T05:58:10.756Z,327
2016-12-14T05:59:11.445Z,323
2016-12-14T06:00:10.967Z,322
2016-12-14T06:01:11.082Z,322
2016-12-14T06:02:11.173Z,322
2016-12-14T06:03:11.279Z,321
2016-12-14T06:04:11.946Z,323
2016-12-14T06:05:11.529Z,324
2016-12-14T06:06:12.448Z,323
2016-12-14T06:07:12.454Z,322
2016-12-14T06:08:12.452Z,324
2016-12-14T06:09:12.954Z,321
2016-12-14T06:10:13.461Z,343
2016-12-14T06:11:12.229Z,350
2016-12-14T06:12:12.321Z,348
2016-12-14T06:13:12.398Z,347
2016-12-14T06:14:12.547Z,345
2016-12-14T06:15:12.626Z,340
2016-12-14T06:16:12.698Z,337
2016-12-14T06:17:12.837Z,335
2016-12-14T06:18:12.970Z,334
2016-12-14T06:19:13.094Z,328
2016-12-14T06:20:13.265Z,328
2016-12-14T06:21:13.360Z,325
2016-12-14T06:22:13.449Z,328
2016-12-14T06:23:13.550Z,318
2016-12-14T06:24:13.676Z,302
2016-12-14T06:25:13.746Z,305
2016-12-14T06:26:13.860Z,301
2016-12-14T06:27:13.973Z,301
2016-12-14T06:28:14.096Z,300
2016-12-14T06:29:14.256Z,300
2016-12-14T06:30:14.351Z,300
2016-12-14T06:31:14.458Z,300
2016-12-14T06:32:14.564Z,299
2016-12-14T06:33:14.762Z,299
2016-12-14T06:34:14.858Z,299
2016-12-14T06:35:14.979Z,298
2016-12-14T06:36:15.104Z,298
2016-12-14T06:37:15.202Z,298
2016-12-14T06:38:15.346Z,299
2016-12-14T06:39:15.507Z,298
2016-12-14T06:40:15.594Z,298
2016-12-14T06:41:15.691Z,298
2016-12-14T06:42:15.763Z,298
2016-12-14T06:43:15.837Z,298
2016-12-14T06:44:15.912Z,298
2016-12-14T06:45:16.020Z,298
2016-12-14T06:46:16.142Z,298
2016-12-14T06:47:16.253Z,298
2016-12-14T06:48:16.343Z,298
2016-12-14T06:49:16.435Z,298
2016-12-14T06:50:16.532Z,298
2016-12-14T06:51:16.718Z,298
2016-12-14T06:52:16.815Z,298
2016-12-14T06:53:16.888Z,298
2016-12-14T06:54:17.039Z,298
2016-12-14T06:55:17.143Z,298
2016-12-14T06:56:17.256Z,298
2016-12-14T06:57:17.379Z,298
2016-12-14T06:58:17.447Z,298
2016-12-14T06:59:17.567Z,298
2016-12-14T07:00:17.647Z,298
2016-12-14T07:01:17.774Z,298
2016-12-14T07:02:17.873Z,298
2016-12-14T07:03:18.033Z,299
2016-12-14T07:04:18.146Z,298
2016-12-14T07:05:18.267Z,298
2016-12-14T07:06:18.365Z,298
2016-12-14T07:07:18.481Z,301
2016-12-14T07:08:18.629Z,300
2016-12-14T07:09:18.734Z,300
2016-12-14T07:10:18.839Z,300
2016-12-14T07:11:18.956Z,299
2016-12-14T07:12:19.087Z,299
2016-12-14T07:13:19.230Z,299
2016-12-14T07:14:19.326Z,299
2016-12-14T07:15:19.433Z,299
2016-12-14T07:16:19.516Z,298
2016-12-14T07:17:19.666Z,298
2016-12-14T07:18:19.803Z,298
2016-12-14T07:19:19.948Z,298
2016-12-14T07:20:20.081Z,298
2016-12-14T07:21:20.174Z,298
2016-12-14T07:22:20.267Z,298
2016-12-14T07:23:20.976Z,298
2016-12-14T07:24:20.498Z,298
2016-12-14T07:25:20.613Z,298
2016-12-14T07:26:20.752Z,298
2016-12-14T07:27:20.843Z,298
2016-12-14T07:28:20.957Z,298
2016-12-14T07:29:21.150Z,298
2016-12-14T07:30:21.258Z,298
2016-12-14T07:31:21.420Z,298
2016-12-14T07:32:21.516Z,298
2016-12-14T07:33:21.663Z,298
2016-12-14T07:34:21.814Z,298
2016-12-14T07:35:22.053Z,298
2016-12-14T07:36:22.167Z,298
2016-12-14T07:37:22.350Z,298
2016-12-14T07:38:22.463Z,298
2016-12-14T07:39:22.610Z,298
2016-12-14T07:40:22.695Z,298
2016-12-14T07:41:22.811Z,298
2016-12-14T07:42:22.918Z,299
2016-12-14T07:43:23.083Z,298
2016-12-14T07:44:23.222Z,298
2016-12-14T07:45:23.325Z,298
2016-12-14T07:46:23.457Z,298
2016-12-14T07:47:23.616Z,298
2016-12-14T07:48:23.722Z,298
2016-12-14T07:49:23.848Z,298
2016-12-14T07:50:24.020Z,298
2016-12-14T07:51:24.172Z,298
2016-12-14T07:52:24.274Z,298
2016-12-14T07:53:24.395Z,298
2016-12-14T07:54:24.462Z,298
2016-12-14T07:55:24.626Z,297
2016-12-14T07:56:24.751Z,298
2016-12-14T07:57:24.881Z,298
2016-12-14T07:58:24.980Z,298
2016-12-14T07:59:25.161Z,298
2016-12-14T08:00:25.307Z,298
2016-12-14T08:01:25.465Z,298
2016-12-14T08:02:25.629Z,298
2016-12-14T08:03:25.799Z,298
2016-12-14T08:04:26.033Z,297
2016-12-14T08:05:26.252Z,298
2016-12-14T08:06:26.431Z,298
2016-12-14T08:07:26.618Z,298
2016-12-14T08:08:26.786Z,298
2016-12-14T08:09:26.961Z,298
2016-12-14T08:10:27.186Z,298
2016-12-14T08:11:27.355Z,298
2016-12-14T08:12:27.531Z,297
2016-12-14T08:13:27.654Z,297
2016-12-14T08:14:27.841Z,297
2016-12-14T08:15:27.996Z,298
2016-12-14T08:16:28.183Z,298
2016-12-14T08:17:28.431Z,298
2016-12-14T08:18:28.628Z,298
2016-12-14T08:19:28.817Z,298
2016-12-14T08:20:28.998Z,297
2016-12-14T08:21:29.166Z,298
2016-12-14T08:22:29.335Z,298
2016-12-14T08:23:29.522Z,297
2016-12-14T08:24:29.705Z,298
2016-12-14T08:25:29.894Z,297
2016-12-14T08:26:30.072Z,297
2016-12-14T08:27:30.224Z,297
2016-12-14T08:28:30.386Z,298
2016-12-14T08:29:30.577Z,298
2016-12-14T08:30:30.799Z,298
2016-12-14T08:31:31.005Z,298
2016-12-14T08:32:31.199Z,297
2016-12-14T08:33:31.360Z,298
2016-12-14T08:34:31.507Z,297
2016-12-14T08:35:31.657Z,298
2016-12-14T08:36:31.806Z,297
2016-12-14T08:37:31.987Z,298
2016-12-14T08:38:32.146Z,298
2016-12-14T08:39:32.384Z,297
2016-12-14T08:40:32.533Z,297
2016-12-14T08:41:33.614Z,296
2016-12-14T08:42:33.846Z,295
2016-12-14T08:43:33.981Z,295
2016-12-14T08:44:34.155Z,294
2016-12-14T08:45:34.308Z,294
2016-12-14T08:46:34.446Z,295
2016-12-14T08:47:34.628Z,294
2016-12-14T08:48:34.948Z,295
2016-12-14T08:49:35.141Z,295
2016-12-14T08:50:35.309Z,295
2016-12-14T08:51:35.454Z,295
2016-12-14T08:52:35.645Z,295
2016-12-14T08:53:35.826Z,295
2016-12-14T08:54:35.967Z,294
2016-12-14T08:55:36.127Z,295
2016-12-14T08:56:36.265Z,295
2016-12-14T08:57:36.426Z,294
2016-12-14T08:58:36.578Z,295
2016-12-14T08:59:36.726Z,294
2016-12-14T09:00:36.943Z,295
2016-12-14T09:01:37.114Z,295
2016-12-14T09:02:37.253Z,295
2016-12-14T09:03:37.410Z,295
2016-12-14T09:04:37.585Z,294
2016-12-14T09:05:37.755Z,294
2016-12-14T09:06:37.932Z,294
2016-12-14T09:07:38.103Z,295
2016-12-14T09:08:38.273Z,294
2016-12-14T09:09:38.445Z,295
2016-12-14T09:10:38.615Z,294
2016-12-14T09:11:38.740Z,294
2016-12-14T09:12:38.888Z,294
2016-12-14T09:13:39.104Z,295
2016-12-14T09:14:39.266Z,295
2016-12-14T09:15:39.444Z,294
2016-12-14T09:16:39.620Z,295
2016-12-14T09:17:39.767Z,294
2016-12-14T09:18:39.932Z,294
2016-12-14T09:19:40.050Z,294
2016-12-14T09:20:40.193Z,295
2016-12-14T09:21:40.294Z,294
2016-12-14T09:22:40.451Z,294
2016-12-14T09:23:40.603Z,294
2016-12-14T09:24:40.788Z,295
2016-12-14T09:25:40.919Z,295
2016-12-14T09:26:41.048Z,294
2016-12-14T09:27:41.209Z,295
2016-12-14T09:28:41.376Z,294
2016-12-14T09:29:41.489Z,295
2016-12-14T09:30:41.619Z,294
2016-12-14T09:31:41.770Z,294
2016-12-14T09:32:41.894Z,294
2016-12-14T09:33:42.014Z,294
2016-12-14T09:34:42.136Z,294
2016-12-14T09:35:42.275Z,294
2016-12-14T09:36:42.352Z,295
2016-12-14T09:37:42.498Z,295
2016-12-14T09:38:42.687Z,295
2016-12-14T09:39:42.802Z,294
2016-12-14T09:40:43.505Z,295
2016-12-14T09:41:43.042Z,294
2016-12-14T09:42:43.195Z,295
2016-12-14T09:43:43.299Z,295
2016-12-14T09:44:43.389Z,294
2016-12-14T09:45:43.515Z,294
2016-12-14T09:46:43.638Z,294
2016-12-14T09:47:43.752Z,294
2016-12-14T09:48:43.871Z,294
2016-12-14T09:49:44.074Z,294
2016-12-14T09:50:44.183Z,294
2016-12-14T09:51:44.256Z,295
2016-12-14T09:52:44.383Z,294
2016-12-14T09:53:44.570Z,294
2016-12-14T09:54:44.666Z,294
2016-12-14T09:55:44.768Z,294
2016-12-14T09:56:44.889Z,294
2016-12-14T09:57:44.976Z,294
2016-12-14T09:58:45.059Z,294
2016-12-14T09:59:45.158Z,294
2016-12-14T10:00:45.276Z,294
2016-12-14T10:01:45.431Z,294
2016-12-14T10:02:45.571Z,294
2016-12-14T10:03:45.692Z,294
2016-12-14T10:04:45.858Z,294
2016-12-14T10:05:45.956Z,294
2016-12-14T10:06:46.097Z,294
2016-12-14T10:07:46.234Z,294
2016-12-14T10:08:47.086Z,193
2016-12-14T10:09:47.157Z,294
2016-12-14T10:10:47.273Z,294
2016-12-14T10:11:47.359Z,294
2016-12-14T10:12:47.516Z,295
2016-12-14T10:13:47.612Z,294
2016-12-14T10:14:47.699Z,294
2016-12-14T10:15:47.890Z,294
2016-12-14T10:16:48.037Z,294
2016-12-14T10:17:48.159Z,294
2016-12-14T10:18:48.250Z,294
2016-12-14T10:19:48.359Z,294
2016-12-14T10:20:48.484Z,294
2016-12-14T10:21:48.654Z,295
2016-12-14T10:22:48.771Z,294
2016-12-14T10:23:48.850Z,294
2016-12-14T10:24:48.969Z,294
2016-12-14T10:25:49.054Z,294
2016-12-14T10:26:49.145Z,294
2016-12-14T10:27:49.315Z,294
2016-12-14T10:28:49.464Z,294
2016-12-14T10:29:49.583Z,294
2016-12-14T10:30:49.736Z,294
2016-12-14T10:31:49.838Z,294
2016-12-14T10:32:50.006Z,294
2016-12-14T10:33:50.090Z,294
2016-12-14T10:34:50.223Z,294
2016-12-14T10:35:50.348Z,294
2016-12-14T10:36:50.450Z,294
2016-12-14T10:37:50.549Z,294
2016-12-14T10:38:50.681Z,294
2016-12-14T10:39:50.781Z,294
2016-12-14T10:40:50.962Z,294
2016-12-14T10:41:51.068Z,294
2016-12-14T10:42:51.225Z,294
2016-12-14T10:43:51.343Z,294
2016-12-14T10:44:51.420Z,294
2016-12-14T10:45:51.523Z,294
2016-12-14T10:46:51.660Z,294
2016-12-14T10:47:51.814Z,294
2016-12-14T10:48:51.907Z,294
2016-12-14T10:49:52.015Z,294
2016-12-14T10:50:52.159Z,294
2016-12-14T10:51:52.253Z,294
2016-12-14T10:52:52.353Z,294
2016-12-14T10:53:52.540Z,294
2016-12-14T10:54:52.711Z,294
2016-12-14T10:55:52.897Z,294
2016-12-14T10:56:53.160Z,294
2016-12-14T10:57:53.360Z,294
2016-12-14T10:58:53.585Z,294
2016-12-14T10:59:53.731Z,294
2016-12-14T11:00:53.865Z,294
2016-12-14T11:01:54.009Z,294
2016-12-14T11:02:54.170Z,294
2016-12-14T11:03:54.379Z,294
2016-12-14T11:04:54.543Z,294
2016-12-14T11:05:54.712Z,294
2016-12-14T11:06:54.968Z,294
2016-12-14T11:07:55.086Z,294
2016-12-14T11:08:55.219Z,294
2016-12-14T11:09:55.378Z,294
2016-12-14T11:10:55.542Z,294
2016-12-14T11:11:55.737Z,294
2016-12-14T11:12:55.940Z,294
2016-12-14T11:13:56.102Z,294
2016-12-14T11:14:56.226Z,294
2016-12-14T11:15:56.395Z,294
2016-12-14T11:16:56.561Z,294
2016-12-14T11:17:56.694Z,294
2016-12-14T11:18:56.859Z,294
2016-12-14T11:19:57.046Z,294
2016-12-14T11:20:57.229Z,294
2016-12-14T11:21:57.399Z,294
2016-12-14T11:22:57.514Z,294
2016-12-14T11:23:57.607Z,294
2016-12-14T11:24:57.725Z,294
2016-12-14T11:25:57.844Z,294
2016-12-14T11:26:57.940Z,294
2016-12-14T11:27:58.092Z,294
2016-12-14T11:28:58.276Z,294
2016-12-14T11:29:58.402Z,294
2016-12-14T11:30:58.570Z,294
2016-12-14T11:31:58.668Z,294
2016-12-14T11:32:58.775Z,294
2016-12-14T11:33:58.861Z,294
2016-12-14T11:34:58.990Z,294
2016-12-14T11:35:59.131Z,294
2016-12-14T11:36:59.192Z,294
2016-12-14T11:37:59.289Z,294
2016-12-14T11:38:59.393Z,294
2016-12-14T11:39:59.476Z,294
2016-12-14T11:40:59.555Z,294
2016-12-14T11:41:59.644Z,294
2016-12-14T11:42:59.738Z,294
2016-12-14T11:43:59.836Z,294
2016-12-14T11:44:59.938Z,294
2016-12-14T11:46:00.045Z,294
2016-12-14T11:47:00.159Z,294
2016-12-14T11:48:00.261Z,294
2016-12-14T11:49:00.412Z,294
2016-12-14T11:50:00.515Z,293
2016-12-14T11:51:00.607Z,294
2016-12-14T11:52:00.682Z,294
2016-12-14T11:53:00.828Z,294
2016-12-14T11:54:00.968Z,294
2016-12-14T11:55:01.130Z,294
2016-12-14T11:56:01.234Z,293
2016-12-14T11:57:01.329Z,294
2016-12-14T11:58:01.527Z,294
2016-12-14T11:59:01.686Z,294
2016-12-14T12:00:01.806Z,294
2016-12-14T12:01:01.896Z,294
2016-12-14T12:02:01.978Z,294
2016-12-14T12:03:02.109Z,294
2016-12-14T12:04:02.236Z,294
2016-12-14T12:05:02.345Z,294
2016-12-14T12:06:02.494Z,294
2016-12-14T12:07:02.594Z,294
2016-12-14T12:08:02.733Z,294
2016-12-14T12:09:02.824Z,294
2016-12-14T12:10:02.941Z,293
2016-12-14T12:11:03.061Z,294
2016-12-14T12:12:03.205Z,294
2016-12-14T12:13:03.323Z,294
2016-12-14T12:14:03.458Z,294
2016-12-14T12:15:03.584Z,294
2016-12-14T12:16:03.702Z,294
2016-12-14T12:17:03.818Z,294
2016-12-14T12:18:03.967Z,294
2016-12-14T12:19:04.084Z,294
2016-12-14T12:20:04.168Z,294
2016-12-14T12:21:04.279Z,294
2016-12-14T12:22:04.356Z,294
2016-12-14T12:23:04.524Z,294
2016-12-14T12:24:05.554Z,295
2016-12-14T12:25:04.743Z,294
2016-12-14T12:26:04.871Z,294
2016-12-14T12:27:04.974Z,294
2016-12-14T12:28:05.061Z,294
2016-12-14T12:29:05.636Z,295
2016-12-14T12:30:05.757Z,294
2016-12-14T12:31:05.849Z,294
2016-12-14T12:32:05.930Z,294
2016-12-14T12:33:06.075Z,294
2016-12-14T12:34:06.163Z,294
2016-12-14T12:35:06.282Z,294
2016-12-14T12:36:06.359Z,294
2016-12-14T12:37:06.511Z,294
2016-12-14T12:38:06.674Z,294
2016-12-14T12:39:06.756Z,294
2016-12-14T12:40:06.880Z,294
2016-12-14T12:41:07.027Z,294
2016-12-14T12:42:07.102Z,294
2016-12-14T12:43:07.261Z,294
2016-12-14T12:44:07.332Z,294
2016-12-14T12:45:07.491Z,294
2016-12-14T12:46:07.643Z,294
2016-12-14T12:47:07.774Z,294
2016-12-14T12:48:07.869Z,294
2016-12-14T12:49:07.961Z,294
2016-12-14T12:50:08.076Z,295
2016-12-14T12:51:08.197Z,294
2016-12-14T12:52:08.390Z,294
2016-12-14T12:53:08.527Z,294
2016-12-14T12:54:08.717Z,294
2016-12-14T12:55:08.872Z,294
2016-12-14T12:56:09.035Z,294
2016-12-14T12:57:09.108Z,295
2016-12-14T12:58:09.269Z,294
2016-12-14T12:59:09.345Z,294
2016-12-14T13:00:09.454Z,294
2016-12-14T13:01:09.635Z,294
2016-12-14T13:02:09.727Z,294
2016-12-14T13:03:09.832Z,295
2016-12-14T13:04:09.902Z,294
2016-12-14T13:05:09.980Z,294
2016-12-14T13:06:10.115Z,295
2016-12-14T13:07:10.233Z,294
2016-12-14T13:08:10.336Z,294
2016-12-14T13:09:10.424Z,294
2016-12-14T13:10:10.589Z,294
2016-12-14T13:11:10.716Z,294
2016-12-14T13:12:10.836Z,294
2016-12-14T13:13:10.928Z,294
2016-12-14T13:14:11.005Z,294
2016-12-14T13:15:11.135Z,293
2016-12-14T13:16:11.286Z,294
2016-12-14T13:17:11.405Z,293
2016-12-14T13:18:11.488Z,294
2016-12-14T13:19:11.615Z,294
2016-12-14T13:20:11.774Z,294
2016-12-14T13:21:11.943Z,294
2016-12-14T13:22:12.051Z,294
2016-12-14T13:23:12.147Z,294
2016-12-14T13:24:12.226Z,294
2016-12-14T13:25:12.325Z,294
2016-12-14T13:26:12.438Z,294
2016-12-14T13:27:12.544Z,294
2016-12-14T13:28:12.673Z,294
2016-12-14T13:29:12.752Z,294
2016-12-14T13:30:12.833Z,294
2016-12-14T13:31:12.965Z,294
2016-12-14T13:32:13.142Z,294
2016-12-14T13:33:13.233Z,294
2016-12-14T13:34:13.343Z,294
2016-12-14T13:35:13.430Z,294
2016-12-14T13:36:13.533Z,294
2016-12-14T13:37:13.610Z,294
2016-12-14T13:38:13.760Z,294
2016-12-14T13:39:13.877Z,294
2016-12-14T13:40:13.958Z,294
2016-12-14T13:41:14.069Z,294
2016-12-14T13:42:14.204Z,294
2016-12-14T13:43:14.296Z,294
2016-12-14T13:44:14.391Z,294
2016-12-14T13:45:14.516Z,294
2016-12-14T13:46:14.607Z,294
2016-12-14T13:47:14.755Z,294
2016-12-14T13:48:14.879Z,294